Indianapolis, Indiana
Current Conditions -  °F | °C
As of 12:54 PM on Thursday 29 Jan 2015 (Local Time) from KIND Reporting Station
Drizzle Drizzle  
Wind Chill: 21°   Ceiling: 1000
Heat Index: 33°   Visibility: 2mi
Dew Point: 32°   Wind: 23mph
Humidity: 96%   Direction: 280°W
Pressure: 29.91"   Gusts: 33mph
Location:  39.77°N, 86.15°W
Report Text: KIND 291754Z 28020G29KT 2SM -DZ BR BKN010 OVC014 01/00 A2991 RMK AO2 PK WND 28032/1720 DZB37 SLP134 P0000 60000 T00060000 10072 20006 51041
Loading
Personal Weather Stations






























Interactive Weather Map New forecast layout! Learn more

10-Day Weather Forecast

Advertisements
Track Severe Weather on mobile